sensor_id;sensor_type;location;lat;lon;timestamp;P1;durP1;ratioP1;P2;durP2;ratioP2
12535;SDS011;6334;48.696;2.114;2023-03-01T00:01:56;9.37;;;5.27;;
12535;SDS011;6334;48.696;2.114;2023-03-01T00:04:26;8.93;;;5.43;;
12535;SDS011;6334;48.696;2.114;2023-03-01T00:06:56;7.57;;;5.40;;
12535;SDS011;6334;48.696;2.114;2023-03-01T00:09:25;8.83;;;5.63;;
12535;SDS011;6334;48.696;2.114;2023-03-01T00:11:55;8.77;;;5.67;;
12535;SDS011;6334;48.696;2.114;2023-03-01T00:14:25;8.80;;;5.40;;
12535;SDS011;6334;48.696;2.114;2023-03-01T00:16:55;9.30;;;5.37;;
12535;SDS011;6334;48.696;2.114;2023-03-01T00:19:25;9.63;;;5.60;;
12535;SDS011;6334;48.696;2.114;2023-03-01T00:21:55;9.00;;;5.30;;
12535;SDS011;6334;48.696;2.114;2023-03-01T00:24:24;7.77;;;5.37;;
12535;SDS011;6334;48.696;2.114;2023-03-01T00:26:54;8.60;;;5.10;;
12535;SDS011;6334;48.696;2.114;2023-03-01T00:29:24;7.13;;;5.50;;
12535;SDS011;6334;48.696;2.114;2023-03-01T00:31:53;6.73;;;4.93;;
12535;SDS011;6334;48.696;2.114;2023-03-01T00:34:24;7.70;;;5.33;;
12535;SDS011;6334;48.696;2.114;2023-03-01T00:36:56;8.97;;;5.50;;
12535;SDS011;6334;48.696;2.114;2023-03-01T00:39:26;10.17;;;5.30;;
12535;SDS011;6334;48.696;2.114;2023-03-01T00:41:56;8.97;;;5.37;;
12535;SDS011;6334;48.696;2.114;2023-03-01T00:44:25;10.27;;;5.90;;
12535;SDS011;6334;48.696;2.114;2023-03-01T00:46:55;7.40;;;5.37;;
12535;SDS011;6334;48.696;2.114;2023-03-01T00:49:24;9.03;;;5.70;;
12535;SDS011;6334;48.696;2.114;2023-03-01T00:51:55;8.00;;;5.17;;
12535;SDS011;6334;48.696;2.114;2023-03-01T00:54:24;8.77;;;5.50;;
12535;SDS011;6334;48.696;2.114;2023-03-01T00:56:55;8.33;;;5.40;;
12535;SDS011;6334;48.696;2.114;2023-03-01T00:59:24;7.73;;;5.57;;
12535;SDS011;6334;48.696;2.114;2023-03-01T01:01:54;8.23;;;5.30;;
12535;SDS011;6334;48.696;2.114;2023-03-01T01:04:24;10.47;;;5.73;;
12535;SDS011;6334;48.696;2.114;2023-03-01T01:06:53;8.30;;;5.47;;
12535;SDS011;6334;48.696;2.114;2023-03-01T01:09:23;9.43;;;5.53;;
12535;SDS011;6334;48.696;2.114;2023-03-01T01:11:52;7.77;;;5.63;;
12535;SDS011;6334;48.696;2.114;2023-03-01T01:14:24;11.83;;;5.67;;
12535;SDS011;6334;48.696;2.114;2023-03-01T01:16:54;10.33;;;6.00;;
12535;SDS011;6334;48.696;2.114;2023-03-01T01:19:23;9.40;;;5.80;;
12535;SDS011;6334;48.696;2.114;2023-03-01T01:21:54;9.30;;;5.90;;
12535;SDS011;6334;48.696;2.114;2023-03-01T01:24:23;8.93;;;5.77;;
12535;SDS011;6334;48.696;2.114;2023-03-01T01:26:53;8.80;;;5.40;;
12535;SDS011;6334;48.696;2.114;2023-03-01T01:29:23;9.53;;;5.83;;
12535;SDS011;6334;48.696;2.114;2023-03-01T01:31:53;11.90;;;5.53;;
12535;SDS011;6334;48.696;2.114;2023-03-01T01:34:23;10.07;;;6.50;;
12535;SDS011;6334;48.696;2.114;2023-03-01T01:36:53;10.10;;;5.83;;
12535;SDS011;6334;48.696;2.114;2023-03-01T01:39:23;8.50;;;5.80;;
12535;SDS011;6334;48.696;2.114;2023-03-01T01:41:52;9.50;;;6.10;;
12535;SDS011;6334;48.696;2.114;2023-03-01T01:44:25;9.33;;;5.90;;
12535;SDS011;6334;48.696;2.114;2023-03-01T01:46:57;7.70;;;5.43;;
12535;SDS011;6334;48.696;2.114;2023-03-01T01:49:34;10.23;;;6.10;;
12535;SDS011;6334;48.696;2.114;2023-03-01T01:52:14;9.17;;;5.80;;
12535;SDS011;6334;48.696;2.114;2023-03-01T01:54:47;11.17;;;6.20;;
12535;SDS011;6334;48.696;2.114;2023-03-01T01:57:49;10.17;;;6.37;;
12535;SDS011;6334;48.696;2.114;2023-03-01T01:59:57;9.73;;;6.33;;
12535;SDS011;6334;48.696;2.114;2023-03-01T02:02:26;9.20;;;6.03;;
12535;SDS011;6334;48.696;2.114;2023-03-01T02:05:00;10.40;;;6.13;;
12535;SDS011;6334;48.696;2.114;2023-03-01T02:07:25;11.13;;;6.00;;
12535;SDS011;6334;48.696;2.114;2023-03-01T02:09:55;9.63;;;5.57;;
12535;SDS011;6334;48.696;2.114;2023-03-01T02:12:26;10.43;;;6.27;;
12535;SDS011;6334;48.696;2.114;2023-03-01T02:14:56;9.97;;;6.07;;
12535;SDS011;6334;48.696;2.114;2023-03-01T02:17:27;9.60;;;6.20;;
12535;SDS011;6334;48.696;2.114;2023-03-01T02:20:03;8.67;;;5.90;;
12535;SDS011;6334;48.696;2.114;2023-03-01T02:22:40;8.07;;;5.50;;
12535;SDS011;6334;48.696;2.114;2023-03-01T02:30:34;9.30;;;6.10;;
12535;SDS011;6334;48.696;2.114;2023-03-01T02:33:05;9.20;;;5.87;;
12535;SDS011;6334;48.696;2.114;2023-03-01T02:35:37;9.07;;;6.10;;
12535;SDS011;6334;48.696;2.114;2023-03-01T02:38:07;10.87;;;6.23;;
12535;SDS011;6334;48.696;2.114;2023-03-01T02:40:38;9.53;;;5.87;;
12535;SDS011;6334;48.696;2.114;2023-03-01T02:43:08;9.53;;;5.80;;
12535;SDS011;6334;48.696;2.114;2023-03-01T02:45:42;9.30;;;5.93;;
12535;SDS011;6334;48.696;2.114;2023-03-01T02:48:09;10.60;;;6.33;;
12535;SDS011;6334;48.696;2.114;2023-03-01T02:50:45;10.67;;;6.40;;
12535;SDS011;6334;48.696;2.114;2023-03-01T02:53:14;10.40;;;6.23;;
12535;SDS011;6334;48.696;2.114;2023-03-01T02:55:43;8.50;;;5.50;;
12535;SDS011;6334;48.696;2.114;2023-03-01T02:58:13;9.33;;;5.63;;
12535;SDS011;6334;48.696;2.114;2023-03-01T03:00:44;9.97;;;6.00;;
12535;SDS011;6334;48.696;2.114;2023-03-01T03:03:17;8.40;;;5.90;;
12535;SDS011;6334;48.696;2.114;2023-03-01T03:05:47;9.20;;;5.80;;
12535;SDS011;6334;48.696;2.114;2023-03-01T03:08:18;10.83;;;6.47;;
12535;SDS011;6334;48.696;2.114;2023-03-01T03:10:48;10.73;;;6.60;;
12535;SDS011;6334;48.696;2.114;2023-03-01T03:13:19;10.70;;;5.77;;
12535;SDS011;6334;48.696;2.114;2023-03-01T03:15:49;9.00;;;6.10;;
12535;SDS011;6334;48.696;2.114;2023-03-01T03:18:20;11.97;;;6.57;;
12535;SDS011;6334;48.696;2.114;2023-03-01T03:20:50;11.23;;;6.87;;
12535;SDS011;6334;48.696;2.114;2023-03-01T03:23:21;10.73;;;6.80;;
12535;SDS011;6334;48.696;2.114;2023-03-01T03:25:51;10.87;;;6.53;;
12535;SDS011;6334;48.696;2.114;2023-03-01T03:28:23;11.33;;;6.77;;
12535;SDS011;6334;48.696;2.114;2023-03-01T03:30:53;11.23;;;6.57;;
12535;SDS011;6334;48.696;2.114;2023-03-01T03:33:24;10.50;;;6.70;;
12535;SDS011;6334;48.696;2.114;2023-03-01T03:35:54;11.03;;;6.90;;
12535;SDS011;6334;48.696;2.114;2023-03-01T03:38:24;13.10;;;7.10;;
12535;SDS011;6334;48.696;2.114;2023-03-01T03:41:01;9.83;;;6.53;;
12535;SDS011;6334;48.696;2.114;2023-03-01T03:43:31;10.57;;;6.50;;
12535;SDS011;6334;48.696;2.114;2023-03-01T03:46:01;10.43;;;6.53;;
12535;SDS011;6334;48.696;2.114;2023-03-01T03:48:38;12.30;;;6.60;;
12535;SDS011;6334;48.696;2.114;2023-03-01T03:51:04;11.17;;;6.63;;
12535;SDS011;6334;48.696;2.114;2023-03-01T03:53:35;11.57;;;6.97;;
12535;SDS011;6334;48.696;2.114;2023-03-01T03:56:05;11.50;;;6.27;;
12535;SDS011;6334;48.696;2.114;2023-03-01T03:58:36;10.97;;;6.20;;
12535;SDS011;6334;48.696;2.114;2023-03-01T04:01:06;12.33;;;6.20;;
12535;SDS011;6334;48.696;2.114;2023-03-01T04:03:36;8.70;;;5.90;;
12535;SDS011;6334;48.696;2.114;2023-03-01T04:06:06;10.87;;;6.53;;
12535;SDS011;6334;48.696;2.114;2023-03-01T04:08:37;9.27;;;5.83;;
12535;SDS011;6334;48.696;2.114;2023-03-01T04:11:08;10.77;;;6.10;;
12535;SDS011;6334;48.696;2.114;2023-03-01T04:13:54;10.17;;;6.50;;
12535;SDS011;6334;48.696;2.114;2023-03-01T04:16:23;11.33;;;6.53;;
12535;SDS011;6334;48.696;2.114;2023-03-01T04:18:53;10.03;;;6.37;;
12535;SDS011;6334;48.696;2.114;2023-03-01T04:21:24;11.47;;;6.67;;
12535;SDS011;6334;48.696;2.114;2023-03-01T04:23:54;10.87;;;6.57;;
12535;SDS011;6334;48.696;2.114;2023-03-01T04:26:25;10.37;;;6.40;;
12535;SDS011;6334;48.696;2.114;2023-03-01T04:28:55;9.80;;;6.50;;
12535;SDS011;6334;48.696;2.114;2023-03-01T04:31:26;9.90;;;6.60;;
12535;SDS011;6334;48.696;2.114;2023-03-01T04:33:56;9.53;;;6.70;;
12535;SDS011;6334;48.696;2.114;2023-03-01T04:36:28;9.53;;;6.43;;
12535;SDS011;6334;48.696;2.114;2023-03-01T04:38:58;10.63;;;6.73;;
12535;SDS011;6334;48.696;2.114;2023-03-01T04:41:29;10.63;;;6.43;;
12535;SDS011;6334;48.696;2.114;2023-03-01T04:43:59;11.23;;;6.37;;
12535;SDS011;6334;48.696;2.114;2023-03-01T04:46:30;10.07;;;6.27;;
12535;SDS011;6334;48.696;2.114;2023-03-01T04:49:00;10.70;;;6.60;;
12535;SDS011;6334;48.696;2.114;2023-03-01T04:51:31;11.27;;;6.60;;
12535;SDS011;6334;48.696;2.114;2023-03-01T04:54:01;9.87;;;5.97;;
12535;SDS011;6334;48.696;2.114;2023-03-01T04:56:31;11.10;;;6.70;;
12535;SDS011;6334;48.696;2.114;2023-03-01T04:59:02;11.30;;;6.43;;
12535;SDS011;6334;48.696;2.114;2023-03-01T05:01:32;10.70;;;6.80;;
12535;SDS011;6334;48.696;2.114;2023-03-01T05:04:02;10.30;;;6.60;;
12535;SDS011;6334;48.696;2.114;2023-03-01T05:06:32;10.40;;;6.20;;
12535;SDS011;6334;48.696;2.114;2023-03-01T05:09:03;9.40;;;6.27;;
12535;SDS011;6334;48.696;2.114;2023-03-01T05:11:33;11.20;;;7.00;;
12535;SDS011;6334;48.696;2.114;2023-03-01T05:14:04;11.70;;;6.63;;
12535;SDS011;6334;48.696;2.114;2023-03-01T05:16:34;10.23;;;6.40;;
12535;SDS011;6334;48.696;2.114;2023-03-01T05:19:05;10.77;;;6.33;;
12535;SDS011;6334;48.696;2.114;2023-03-01T05:21:38;11.77;;;6.80;;
12535;SDS011;6334;48.696;2.114;2023-03-01T05:24:28;11.57;;;6.33;;
12535;SDS011;6334;48.696;2.114;2023-03-01T05:26:58;10.07;;;6.03;;
12535;SDS011;6334;48.696;2.114;2023-03-01T05:29:28;12.27;;;6.53;;
12535;SDS011;6334;48.696;2.114;2023-03-01T05:31:59;11.60;;;6.60;;
12535;SDS011;6334;48.696;2.114;2023-03-01T05:34:32;9.23;;;6.30;;
12535;SDS011;6334;48.696;2.114;2023-03-01T05:37:02;10.90;;;6.43;;
12535;SDS011;6334;48.696;2.114;2023-03-01T05:39:32;10.23;;;6.57;;
12535;SDS011;6334;48.696;2.114;2023-03-01T05:42:03;10.27;;;6.33;;
12535;SDS011;6334;48.696;2.114;2023-03-01T05:44:33;9.50;;;6.30;;
12535;SDS011;6334;48.696;2.114;2023-03-01T05:47:04;9.77;;;6.30;;
12535;SDS011;6334;48.696;2.114;2023-03-01T05:49:34;10.10;;;6.50;;
12535;SDS011;6334;48.696;2.114;2023-03-01T05:52:05;11.27;;;6.93;;
12535;SDS011;6334;48.696;2.114;2023-03-01T05:54:34;11.43;;;6.60;;
12535;SDS011;6334;48.696;2.114;2023-03-01T05:57:05;10.83;;;6.33;;
12535;SDS011;6334;48.696;2.114;2023-03-01T05:59:35;11.43;;;6.83;;
12535;SDS011;6334;48.696;2.114;2023-03-01T06:02:06;11.70;;;6.60;;
12535;SDS011;6334;48.696;2.114;2023-03-01T06:04:36;10.47;;;6.13;;
12535;SDS011;6334;48.696;2.114;2023-03-01T06:07:07;10.10;;;6.40;;
12535;SDS011;6334;48.696;2.114;2023-03-01T06:09:37;10.97;;;6.90;;
12535;SDS011;6334;48.696;2.114;2023-03-01T06:12:08;11.87;;;6.67;;
12535;SDS011;6334;48.696;2.114;2023-03-01T06:14:38;10.40;;;6.40;;
12535;SDS011;6334;48.696;2.114;2023-03-01T06:17:09;11.33;;;6.70;;
12535;SDS011;6334;48.696;2.114;2023-03-01T06:19:39;11.50;;;7.10;;
12535;SDS011;6334;48.696;2.114;2023-03-01T06:22:09;10.13;;;6.63;;
12535;SDS011;6334;48.696;2.114;2023-03-01T06:24:40;12.53;;;6.77;;
12535;SDS011;6334;48.696;2.114;2023-03-01T06:27:10;13.40;;;7.20;;
12535;SDS011;6334;48.696;2.114;2023-03-01T06:29:41;12.10;;;7.47;;
12535;SDS011;6334;48.696;2.114;2023-03-01T06:32:11;13.20;;;7.73;;
12535;SDS011;6334;48.696;2.114;2023-03-01T06:34:42;12.20;;;7.10;;
12535;SDS011;6334;48.696;2.114;2023-03-01T06:37:12;10.57;;;6.33;;
12535;SDS011;6334;48.696;2.114;2023-03-01T06:39:43;10.30;;;6.67;;
12535;SDS011;6334;48.696;2.114;2023-03-01T06:42:13;10.77;;;6.93;;
12535;SDS011;6334;48.696;2.114;2023-03-01T06:44:44;10.83;;;6.27;;
12535;SDS011;6334;48.696;2.114;2023-03-01T06:47:14;11.87;;;7.40;;
12535;SDS011;6334;48.696;2.114;2023-03-01T06:49:44;11.80;;;6.70;;
12535;SDS011;6334;48.696;2.114;2023-03-01T06:52:15;14.37;;;7.30;;
12535;SDS011;6334;48.696;2.114;2023-03-01T06:54:45;13.33;;;7.60;;
12535;SDS011;6334;48.696;2.114;2023-03-01T06:57:16;12.17;;;6.60;;
12535;SDS011;6334;48.696;2.114;2023-03-01T06:59:46;13.40;;;7.37;;
12535;SDS011;6334;48.696;2.114;2023-03-01T07:02:17;11.90;;;7.17;;
12535;SDS011;6334;48.696;2.114;2023-03-01T07:04:50;12.13;;;7.40;;
12535;SDS011;6334;48.696;2.114;2023-03-01T07:07:20;16.73;;;7.60;;
12535;SDS011;6334;48.696;2.114;2023-03-01T07:09:51;14.57;;;8.27;;
12535;SDS011;6334;48.696;2.114;2023-03-01T07:12:21;10.43;;;7.07;;
12535;SDS011;6334;48.696;2.114;2023-03-01T07:14:52;12.30;;;7.47;;
12535;SDS011;6334;48.696;2.114;2023-03-01T07:17:22;12.30;;;7.40;;
12535;SDS011;6334;48.696;2.114;2023-03-01T07:19:53;13.70;;;7.40;;
12535;SDS011;6334;48.696;2.114;2023-03-01T07:22:23;14.37;;;7.93;;
12535;SDS011;6334;48.696;2.114;2023-03-01T07:24:54;13.20;;;7.90;;
12535;SDS011;6334;48.696;2.114;2023-03-01T07:27:24;12.13;;;7.60;;
12535;SDS011;6334;48.696;2.114;2023-03-01T07:29:55;13.70;;;7.90;;
12535;SDS011;6334;48.696;2.114;2023-03-01T07:32:25;13.63;;;7.43;;
12535;SDS011;6334;48.696;2.114;2023-03-01T07:34:57;15.00;;;8.33;;
12535;SDS011;6334;48.696;2.114;2023-03-01T07:37:26;13.17;;;8.10;;
12535;SDS011;6334;48.696;2.114;2023-03-01T07:39:57;14.03;;;8.03;;
12535;SDS011;6334;48.696;2.114;2023-03-01T07:42:27;18.47;;;9.20;;
12535;SDS011;6334;48.696;2.114;2023-03-01T07:44:59;12.23;;;8.10;;
12535;SDS011;6334;48.696;2.114;2023-03-01T07:47:30;13.87;;;8.63;;
12535;SDS011;6334;48.696;2.114;2023-03-01T07:50:00;13.83;;;9.30;;
12535;SDS011;6334;48.696;2.114;2023-03-01T07:52:31;14.97;;;8.70;;
12535;SDS011;6334;48.696;2.114;2023-03-01T07:55:01;13.83;;;8.37;;
12535;SDS011;6334;48.696;2.114;2023-03-01T07:57:32;15.50;;;9.13;;
12535;SDS011;6334;48.696;2.114;2023-03-01T08:00:02;15.17;;;9.50;;
12535;SDS011;6334;48.696;2.114;2023-03-01T08:02:32;15.40;;;9.07;;
12535;SDS011;6334;48.696;2.114;2023-03-01T08:05:03;14.53;;;9.37;;
12535;SDS011;6334;48.696;2.114;2023-03-01T08:07:33;14.33;;;9.07;;
12535;SDS011;6334;48.696;2.114;2023-03-01T08:10:04;14.17;;;8.80;;
12535;SDS011;6334;48.696;2.114;2023-03-01T08:12:34;14.00;;;8.93;;
12535;SDS011;6334;48.696;2.114;2023-03-01T08:15:05;14.57;;;9.13;;
12535;SDS011;6334;48.696;2.114;2023-03-01T08:17:35;13.83;;;9.33;;
12535;SDS011;6334;48.696;2.114;2023-03-01T08:20:06;16.27;;;9.57;;
12535;SDS011;6334;48.696;2.114;2023-03-01T08:22:36;15.03;;;9.53;;
12535;SDS011;6334;48.696;2.114;2023-03-01T08:25:07;14.60;;;9.87;;
12535;SDS011;6334;48.696;2.114;2023-03-01T08:27:37;15.60;;;9.53;;
12535;SDS011;6334;48.696;2.114;2023-03-01T08:30:08;14.30;;;9.73;;
12535;SDS011;6334;48.696;2.114;2023-03-01T08:32:39;15.47;;;9.73;;
12535;SDS011;6334;48.696;2.114;2023-03-01T08:35:09;14.97;;;9.27;;
12535;SDS011;6334;48.696;2.114;2023-03-01T08:37:39;16.10;;;9.97;;
12535;SDS011;6334;48.696;2.114;2023-03-01T08:40:10;14.73;;;9.83;;
12535;SDS011;6334;48.696;2.114;2023-03-01T08:42:41;18.93;;;9.77;;
12535;SDS011;6334;48.696;2.114;2023-03-01T08:45:11;14.60;;;9.73;;
12535;SDS011;6334;48.696;2.114;2023-03-01T08:47:41;15.03;;;9.57;;
12535;SDS011;6334;48.696;2.114;2023-03-01T08:50:12;17.83;;;10.00;;
12535;SDS011;6334;48.696;2.114;2023-03-01T08:52:42;15.13;;;8.90;;
12535;SDS011;6334;48.696;2.114;2023-03-01T08:55:13;19.07;;;10.03;;
12535;SDS011;6334;48.696;2.114;2023-03-01T08:57:43;16.30;;;9.93;;
12535;SDS011;6334;48.696;2.114;2023-03-01T09:00:14;15.67;;;9.87;;
12535;SDS011;6334;48.696;2.114;2023-03-01T09:02:44;14.77;;;9.23;;
12535;SDS011;6334;48.696;2.114;2023-03-01T09:05:15;14.03;;;9.13;;
12535;SDS011;6334;48.696;2.114;2023-03-01T09:07:45;16.50;;;8.87;;
12535;SDS011;6334;48.696;2.114;2023-03-01T09:10:16;15.73;;;9.90;;
12535;SDS011;6334;48.696;2.114;2023-03-01T09:12:46;14.33;;;9.10;;
12535;SDS011;6334;48.696;2.114;2023-03-01T09:15:17;15.03;;;9.23;;
12535;SDS011;6334;48.696;2.114;2023-03-01T09:17:47;14.97;;;9.80;;
12535;SDS011;6334;48.696;2.114;2023-03-01T09:20:17;14.33;;;8.77;;
12535;SDS011;6334;48.696;2.114;2023-03-01T09:22:48;15.53;;;9.20;;
12535;SDS011;6334;48.696;2.114;2023-03-01T09:25:18;14.17;;;9.43;;
12535;SDS011;6334;48.696;2.114;2023-03-01T09:27:52;14.83;;;9.10;;
12535;SDS011;6334;48.696;2.114;2023-03-01T09:30:22;13.90;;;9.53;;
12535;SDS011;6334;48.696;2.114;2023-03-01T09:32:52;13.40;;;9.00;;
12535;SDS011;6334;48.696;2.114;2023-03-01T09:35:23;14.37;;;8.97;;
12535;SDS011;6334;48.696;2.114;2023-03-01T09:37:53;16.90;;;9.87;;
12535;SDS011;6334;48.696;2.114;2023-03-01T09:40:24;17.93;;;9.57;;
12535;SDS011;6334;48.696;2.114;2023-03-01T09:42:55;13.30;;;8.90;;
12535;SDS011;6334;48.696;2.114;2023-03-01T09:45:26;15.17;;;8.83;;
12535;SDS011;6334;48.696;2.114;2023-03-01T09:47:55;14.60;;;9.60;;
12535;SDS011;6334;48.696;2.114;2023-03-01T09:50:25;16.47;;;9.70;;
12535;SDS011;6334;48.696;2.114;2023-03-01T09:55:31;15.13;;;9.37;;
12535;SDS011;6334;48.696;2.114;2023-03-01T09:58:06;14.00;;;9.27;;
12535;SDS011;6334;48.696;2.114;2023-03-01T10:00:49;14.23;;;9.27;;
12535;SDS011;6334;48.696;2.114;2023-03-01T10:03:32;17.17;;;9.87;;
12535;SDS011;6334;48.696;2.114;2023-03-01T10:08:47;13.60;;;8.53;;
12535;SDS011;6334;48.696;2.114;2023-03-01T10:11:20;14.47;;;9.87;;
12535;SDS011;6334;48.696;2.114;2023-03-01T10:16:47;14.53;;;9.90;;
12535;SDS011;6334;48.696;2.114;2023-03-01T10:19:20;14.67;;;9.87;;
12535;SDS011;6334;48.696;2.114;2023-03-01T10:21:47;15.33;;;9.53;;
12535;SDS011;6334;48.696;2.114;2023-03-01T10:24:18;16.43;;;9.97;;
12535;SDS011;6334;48.696;2.114;2023-03-01T10:26:58;13.97;;;9.57;;
12535;SDS011;6334;48.696;2.114;2023-03-01T10:29:34;15.43;;;10.07;;
12535;SDS011;6334;48.696;2.114;2023-03-01T10:31:59;15.67;;;10.30;;
12535;SDS011;6334;48.696;2.114;2023-03-01T10:34:31;16.30;;;10.57;;
12535;SDS011;6334;48.696;2.114;2023-03-01T10:37:09;15.43;;;9.73;;
12535;SDS011;6334;48.696;2.114;2023-03-01T10:42:57;15.47;;;9.97;;
12535;SDS011;6334;48.696;2.114;2023-03-01T10:50:46;14.27;;;9.80;;
12535;SDS011;6334;48.696;2.114;2023-03-01T10:53:20;16.60;;;10.33;;
12535;SDS011;6334;48.696;2.114;2023-03-01T10:55:49;15.53;;;10.10;;
12535;SDS011;6334;48.696;2.114;2023-03-01T10:58:20;17.87;;;10.90;;
12535;SDS011;6334;48.696;2.114;2023-03-01T11:00:51;16.40;;;10.03;;
12535;SDS011;6334;48.696;2.114;2023-03-01T11:03:24;16.90;;;10.03;;
12535;SDS011;6334;48.696;2.114;2023-03-01T11:05:55;14.40;;;9.83;;
12535;SDS011;6334;48.696;2.114;2023-03-01T11:08:31;15.27;;;10.03;;
12535;SDS011;6334;48.696;2.114;2023-03-01T11:16:36;15.67;;;10.13;;
12535;SDS011;6334;48.696;2.114;2023-03-01T11:22:02;17.40;;;9.93;;
12535;SDS011;6334;48.696;2.114;2023-03-01T11:24:11;16.00;;;9.53;;
12535;SDS011;6334;48.696;2.114;2023-03-01T11:26:41;16.87;;;10.80;;
12535;SDS011;6334;48.696;2.114;2023-03-01T11:29:58;14.00;;;9.77;;
12535;SDS011;6334;48.696;2.114;2023-03-01T11:31:42;15.67;;;10.47;;
12535;SDS011;6334;48.696;2.114;2023-03-01T11:34:17;15.03;;;10.53;;
12535;SDS011;6334;48.696;2.114;2023-03-01T11:36:56;18.03;;;10.87;;
12535;SDS011;6334;48.696;2.114;2023-03-01T11:42:03;17.17;;;10.57;;
12535;SDS011;6334;48.696;2.114;2023-03-01T11:44:47;16.07;;;10.47;;
12535;SDS011;6334;48.696;2.114;2023-03-01T11:47:20;14.80;;;10.30;;
12535;SDS011;6334;48.696;2.114;2023-03-01T11:50:07;15.73;;;10.30;;
12535;SDS011;6334;48.696;2.114;2023-03-01T11:52:55;15.50;;;10.90;;
12535;SDS011;6334;48.696;2.114;2023-03-01T11:58:20;14.70;;;10.10;;
12535;SDS011;6334;48.696;2.114;2023-03-01T12:00:52;15.50;;;10.30;;
12535;SDS011;6334;48.696;2.114;2023-03-01T12:09:23;15.20;;;10.90;;
12535;SDS011;6334;48.696;2.114;2023-03-01T12:11:24;15.33;;;10.37;;
12535;SDS011;6334;48.696;2.114;2023-03-01T12:14:10;16.83;;;10.23;;
12535;SDS011;6334;48.696;2.114;2023-03-01T12:17:03;14.60;;;10.10;;
12535;SDS011;6334;48.696;2.114;2023-03-01T12:19:43;16.67;;;9.70;;
12535;SDS011;6334;48.696;2.114;2023-03-01T12:22:39;16.33;;;11.03;;
12535;SDS011;6334;48.696;2.114;2023-03-01T12:25:21;15.30;;;10.37;;
12535;SDS011;6334;48.696;2.114;2023-03-01T12:33:15;15.97;;;10.10;;
12535;SDS011;6334;48.696;2.114;2023-03-01T12:36:02;16.63;;;10.30;;
12535;SDS011;6334;48.696;2.114;2023-03-01T12:38:42;14.97;;;10.27;;
12535;SDS011;6334;48.696;2.114;2023-03-01T12:41:24;15.13;;;10.30;;
12535;SDS011;6334;48.696;2.114;2023-03-01T12:50:00;15.20;;;9.80;;
12535;SDS011;6334;48.696;2.114;2023-03-01T12:52:24;16.20;;;10.03;;
12535;SDS011;6334;48.696;2.114;2023-03-01T12:55:06;15.70;;;10.10;;
12535;SDS011;6334;48.696;2.114;2023-03-01T12:57:37;16.43;;;10.53;;
12535;SDS011;6334;48.696;2.114;2023-03-01T13:00:17;15.00;;;10.37;;
12535;SDS011;6334;48.696;2.114;2023-03-01T13:11:40;16.03;;;10.70;;
12535;SDS011;6334;48.696;2.114;2023-03-01T13:16:53;15.73;;;10.33;;
12535;SDS011;6334;48.696;2.114;2023-03-01T13:19:24;16.30;;;10.57;;
12535;SDS011;6334;48.696;2.114;2023-03-01T13:21:54;16.77;;;10.20;;
12535;SDS011;6334;48.696;2.114;2023-03-01T13:27:08;15.90;;;10.37;;
12535;SDS011;6334;48.696;2.114;2023-03-01T13:29:53;15.43;;;10.30;;
12535;SDS011;6334;48.696;2.114;2023-03-01T13:32:27;15.40;;;10.63;;
12535;SDS011;6334;48.696;2.114;2023-03-01T13:35:01;15.57;;;10.33;;
12535;SDS011;6334;48.696;2.114;2023-03-01T13:37:32;16.27;;;10.80;;
12535;SDS011;6334;48.696;2.114;2023-03-01T13:40:03;14.63;;;10.00;;
12535;SDS011;6334;48.696;2.114;2023-03-01T13:42:36;15.17;;;9.70;;
12535;SDS011;6334;48.696;2.114;2023-03-01T13:45:15;17.50;;;10.43;;
12535;SDS011;6334;48.696;2.114;2023-03-01T13:47:49;16.33;;;10.10;;
12535;SDS011;6334;48.696;2.114;2023-03-01T13:50:20;19.87;;;10.27;;
12535;SDS011;6334;48.696;2.114;2023-03-01T13:52:53;14.77;;;10.03;;
12535;SDS011;6334;48.696;2.114;2023-03-01T13:58:19;16.00;;;10.13;;
12535;SDS011;6334;48.696;2.114;2023-03-01T14:00:55;14.43;;;9.47;;
12535;SDS011;6334;48.696;2.114;2023-03-01T14:03:19;14.57;;;9.77;;
12535;SDS011;6334;48.696;2.114;2023-03-01T14:06:06;13.27;;;8.70;;
12535;SDS011;6334;48.696;2.114;2023-03-01T14:08:39;15.60;;;9.70;;
12535;SDS011;6334;48.696;2.114;2023-03-01T14:11:19;13.37;;;9.37;;
12535;SDS011;6334;48.696;2.114;2023-03-01T14:13:48;15.97;;;9.97;;
12535;SDS011;6334;48.696;2.114;2023-03-01T14:16:37;14.70;;;9.20;;
12535;SDS011;6334;48.696;2.114;2023-03-01T14:21:39;16.30;;;9.47;;
12535;SDS011;6334;48.696;2.114;2023-03-01T14:24:22;15.77;;;9.67;;
12535;SDS011;6334;48.696;2.114;2023-03-01T14:26:51;16.80;;;9.47;;
12535;SDS011;6334;48.696;2.114;2023-03-01T14:29:32;15.43;;;9.60;;
12535;SDS011;6334;48.696;2.114;2023-03-01T14:31:55;16.30;;;9.90;;
12535;SDS011;6334;48.696;2.114;2023-03-01T14:34:26;15.10;;;9.63;;
12535;SDS011;6334;48.696;2.114;2023-03-01T14:36:56;16.57;;;9.73;;
12535;SDS011;6334;48.696;2.114;2023-03-01T14:39:27;16.60;;;9.73;;
12535;SDS011;6334;48.696;2.114;2023-03-01T14:41:57;14.80;;;9.47;;
12535;SDS011;6334;48.696;2.114;2023-03-01T14:44:27;14.13;;;9.23;;
12535;SDS011;6334;48.696;2.114;2023-03-01T14:46:58;16.13;;;10.23;;
12535;SDS011;6334;48.696;2.114;2023-03-01T14:49:29;14.80;;;9.77;;
12535;SDS011;6334;48.696;2.114;2023-03-01T14:52:02;13.17;;;8.83;;
12535;SDS011;6334;48.696;2.114;2023-03-01T14:54:40;16.20;;;10.00;;
12535;SDS011;6334;48.696;2.114;2023-03-01T14:57:14;16.27;;;9.50;;
12535;SDS011;6334;48.696;2.114;2023-03-01T14:59:43;15.87;;;10.50;;
12535;SDS011;6334;48.696;2.114;2023-03-01T15:02:13;16.10;;;10.00;;
12535;SDS011;6334;48.696;2.114;2023-03-01T15:04:44;15.10;;;10.07;;
12535;SDS011;6334;48.696;2.114;2023-03-01T15:07:17;14.77;;;9.53;;
12535;SDS011;6334;48.696;2.114;2023-03-01T15:09:48;15.40;;;9.90;;
12535;SDS011;6334;48.696;2.114;2023-03-01T15:14:57;14.70;;;9.23;;
12535;SDS011;6334;48.696;2.114;2023-03-01T15:20:02;14.87;;;9.43;;
12535;SDS011;6334;48.696;2.114;2023-03-01T15:22:31;15.10;;;10.20;;
12535;SDS011;6334;48.696;2.114;2023-03-01T15:25:01;14.83;;;9.23;;
12535;SDS011;6334;48.696;2.114;2023-03-01T15:27:32;14.20;;;10.13;;
12535;SDS011;6334;48.696;2.114;2023-03-01T15:30:02;16.40;;;10.07;;
12535;SDS011;6334;48.696;2.114;2023-03-01T15:32:34;15.30;;;9.70;;
12535;SDS011;6334;48.696;2.114;2023-03-01T15:38:25;16.23;;;10.30;;
12535;SDS011;6334;48.696;2.114;2023-03-01T15:40:57;14.30;;;9.17;;
12535;SDS011;6334;48.696;2.114;2023-03-01T15:46:25;17.63;;;10.50;;
12535;SDS011;6334;48.696;2.114;2023-03-01T15:48:56;16.47;;;10.43;;
12535;SDS011;6334;48.696;2.114;2023-03-01T15:51:35;14.60;;;9.83;;
12535;SDS011;6334;48.696;2.114;2023-03-01T15:54:06;15.37;;;10.60;;
12535;SDS011;6334;48.696;2.114;2023-03-01T15:56:33;13.90;;;9.23;;
12535;SDS011;6334;48.696;2.114;2023-03-01T15:59:03;15.93;;;10.20;;
12535;SDS011;6334;48.696;2.114;2023-03-01T16:01:34;13.50;;;10.07;;
12535;SDS011;6334;48.696;2.114;2023-03-01T16:04:04;14.60;;;10.37;;
12535;SDS011;6334;48.696;2.114;2023-03-01T16:06:35;15.87;;;10.13;;
12535;SDS011;6334;48.696;2.114;2023-03-01T16:09:05;14.93;;;9.90;;
12535;SDS011;6334;48.696;2.114;2023-03-01T16:11:36;15.13;;;10.13;;
12535;SDS011;6334;48.696;2.114;2023-03-01T16:14:07;14.80;;;9.87;;
12535;SDS011;6334;48.696;2.114;2023-03-01T16:16:37;14.47;;;9.60;;
12535;SDS011;6334;48.696;2.114;2023-03-01T16:19:07;14.83;;;10.40;;
12535;SDS011;6334;48.696;2.114;2023-03-01T16:21:38;13.73;;;9.50;;
12535;SDS011;6334;48.696;2.114;2023-03-01T16:24:08;14.73;;;9.70;;
12535;SDS011;6334;48.696;2.114;2023-03-01T16:26:39;15.17;;;10.00;;
12535;SDS011;6334;48.696;2.114;2023-03-01T16:29:09;16.17;;;10.37;;
12535;SDS011;6334;48.696;2.114;2023-03-01T16:31:39;14.63;;;10.17;;
12535;SDS011;6334;48.696;2.114;2023-03-01T16:34:10;13.47;;;9.17;;
12535;SDS011;6334;48.696;2.114;2023-03-01T16:36:42;14.80;;;9.60;;
12535;SDS011;6334;48.696;2.114;2023-03-01T16:39:11;15.77;;;9.70;;